Suzdal', Russia
Current Conditions -  °F | °C
As of 9:00 PM on Thursday 23 Oct 2014 (Local Time) from UUDL Reporting Station
Clear Clear  
Wind Chill: 12°   Ceiling: Unl
Heat Index: 23°   Visibility: 6mi
Dew Point: 18°   Wind: 11mph
Humidity: 80%   Direction: 310°NW
Pressure: 30.3"   Gusts: NA
Location:  56.43°N, 40.44°E
Report Text: UUDL 231800Z 31005MPS CAVOK M05/M08 Q1026 NOSIG RMK QFE76123850340
Loading
Personal Weather Stations






























Interactive Weather Map
Tropical Storm Tracking
New forecast layout! Learn more

10-Day Weather Forecast

Advertisements
Track Severe Weather on mobile